sensor_id;sensor_type;location;lat;lon;timestamp;P1;durP1;ratioP1;P2;durP2;ratioP2
4786;SDS011;62338;48.832;9.422;2022-07-29T00:02:39;10.73;;;6.50;;
4786;SDS011;62338;48.832;9.422;2022-07-29T00:05:30;11.00;;;6.60;;
4786;SDS011;62338;48.832;9.422;2022-07-29T00:08:21;20.67;;;7.80;;
4786;SDS011;62338;48.832;9.422;2022-07-29T00:11:12;8.53;;;6.50;;
4786;SDS011;62338;48.832;9.422;2022-07-29T00:14:03;13.80;;;7.33;;
4786;SDS011;62338;48.832;9.422;2022-07-29T00:16:54;9.07;;;7.03;;
4786;SDS011;62338;48.832;9.422;2022-07-29T00:19:45;10.93;;;7.00;;
4786;SDS011;62338;48.832;9.422;2022-07-29T00:22:37;11.37;;;7.10;;
4786;SDS011;62338;48.832;9.422;2022-07-29T00:25:28;9.10;;;6.97;;
4786;SDS011;62338;48.832;9.422;2022-07-29T00:28:19;9.23;;;6.90;;
4786;SDS011;62338;48.832;9.422;2022-07-29T00:31:10;10.07;;;7.63;;
4786;SDS011;62338;48.832;9.422;2022-07-29T00:34:01;13.97;;;8.17;;
4786;SDS011;62338;48.832;9.422;2022-07-29T00:36:52;11.23;;;8.40;;
4786;SDS011;62338;48.832;9.422;2022-07-29T00:39:43;11.83;;;7.70;;
4786;SDS011;62338;48.832;9.422;2022-07-29T00:42:44;16.40;;;8.07;;
4786;SDS011;62338;48.832;9.422;2022-07-29T04:05:20;7.17;;;5.10;;
4786;SDS011;62338;48.832;9.422;2022-07-29T04:07:22;8.20;;;5.80;;
4786;SDS011;62338;48.832;9.422;2022-07-29T04:09:24;9.47;;;4.80;;
4786;SDS011;62338;48.832;9.422;2022-07-29T04:11:26;9.03;;;5.80;;
4786;SDS011;62338;48.832;9.422;2022-07-29T04:13:29;7.53;;;5.90;;
4786;SDS011;62338;48.832;9.422;2022-07-29T04:15:31;8.97;;;5.87;;
4786;SDS011;62338;48.832;9.422;2022-07-29T04:17:33;8.50;;;6.00;;
4786;SDS011;62338;48.832;9.422;2022-07-29T04:19:35;8.60;;;6.43;;
4786;SDS011;62338;48.832;9.422;2022-07-29T04:21:38;11.27;;;6.30;;
4786;SDS011;62338;48.832;9.422;2022-07-29T04:23:40;10.23;;;7.10;;
4786;SDS011;62338;48.832;9.422;2022-07-29T04:25:54;7.93;;;6.10;;
4786;SDS011;62338;48.832;9.422;2022-07-29T04:27:55;7.97;;;5.67;;
4786;SDS011;62338;48.832;9.422;2022-07-29T04:30:04;8.37;;;6.57;;
4786;SDS011;62338;48.832;9.422;2022-07-29T04:32:07;9.00;;;6.07;;
4786;SDS011;62338;48.832;9.422;2022-07-29T04:34:09;8.70;;;5.40;;
4786;SDS011;62338;48.832;9.422;2022-07-29T04:36:11;8.33;;;6.40;;
4786;SDS011;62338;48.832;9.422;2022-07-29T04:38:29;7.37;;;5.70;;
4786;SDS011;62338;48.832;9.422;2022-07-29T04:40:31;9.27;;;6.00;;
4786;SDS011;62338;48.832;9.422;2022-07-29T04:42:34;9.10;;;6.40;;
4786;SDS011;62338;48.832;9.422;2022-07-29T04:44:47;9.10;;;5.67;;
4786;SDS011;62338;48.832;9.422;2022-07-29T04:46:50;8.67;;;6.20;;
4786;SDS011;62338;48.832;9.422;2022-07-29T04:48:52;8.70;;;5.80;;
4786;SDS011;62338;48.832;9.422;2022-07-29T04:50:54;8.47;;;6.10;;
4786;SDS011;62338;48.832;9.422;2022-07-29T04:52:57;9.10;;;6.20;;
4786;SDS011;62338;48.832;9.422;2022-07-29T04:54:59;8.53;;;6.03;;
4786;SDS011;62338;48.832;9.422;2022-07-29T04:57:01;7.17;;;5.63;;
4786;SDS011;62338;48.832;9.422;2022-07-29T04:59:03;6.50;;;5.53;;
4786;SDS011;62338;48.832;9.422;2022-07-29T05:01:05;7.70;;;5.93;;
4786;SDS011;62338;48.832;9.422;2022-07-29T05:03:07;8.63;;;6.20;;
4786;SDS011;62338;48.832;9.422;2022-07-29T05:05:09;8.80;;;5.40;;
4786;SDS011;62338;48.832;9.422;2022-07-29T05:07:11;7.83;;;5.57;;
4786;SDS011;62338;48.832;9.422;2022-07-29T05:09:13;15.43;;;6.17;;
4786;SDS011;62338;48.832;9.422;2022-07-29T05:11:15;9.97;;;5.60;;
4786;SDS011;62338;48.832;9.422;2022-07-29T05:13:22;7.37;;;5.50;;
4786;SDS011;62338;48.832;9.422;2022-07-29T05:15:24;7.23;;;5.60;;
4786;SDS011;62338;48.832;9.422;2022-07-29T05:17:26;10.27;;;5.73;;
4786;SDS011;62338;48.832;9.422;2022-07-29T05:19:28;7.40;;;5.60;;
4786;SDS011;62338;48.832;9.422;2022-07-29T05:21:30;6.77;;;5.37;;
4786;SDS011;62338;48.832;9.422;2022-07-29T05:23:32;7.40;;;5.97;;
4786;SDS011;62338;48.832;9.422;2022-07-29T05:25:34;8.30;;;5.10;;
4786;SDS011;62338;48.832;9.422;2022-07-29T05:27:44;6.73;;;5.13;;
4786;SDS011;62338;48.832;9.422;2022-07-29T05:29:51;9.27;;;5.63;;
4786;SDS011;62338;48.832;9.422;2022-07-29T05:31:53;8.10;;;5.67;;
4786;SDS011;62338;48.832;9.422;2022-07-29T05:33:55;10.80;;;6.10;;
4786;SDS011;62338;48.832;9.422;2022-07-29T05:35:56;7.90;;;5.10;;
4786;SDS011;62338;48.832;9.422;2022-07-29T05:38:01;7.27;;;5.30;;
4786;SDS011;62338;48.832;9.422;2022-07-29T05:40:03;7.77;;;6.00;;
4786;SDS011;62338;48.832;9.422;2022-07-29T05:42:09;5.97;;;5.00;;
4786;SDS011;62338;48.832;9.422;2022-07-29T05:44:11;7.43;;;5.70;;
4786;SDS011;62338;48.832;9.422;2022-07-29T05:46:15;7.60;;;5.27;;
4786;SDS011;62338;48.832;9.422;2022-07-29T05:48:17;9.30;;;6.03;;
4786;SDS011;62338;48.832;9.422;2022-07-29T05:50:19;7.70;;;5.20;;
4786;SDS011;62338;48.832;9.422;2022-07-29T05:52:21;7.80;;;5.20;;
4786;SDS011;62338;48.832;9.422;2022-07-29T05:54:23;8.43;;;5.90;;
4786;SDS011;62338;48.832;9.422;2022-07-29T05:56:26;6.47;;;4.80;;
4786;SDS011;62338;48.832;9.422;2022-07-29T05:58:27;7.27;;;5.73;;
4786;SDS011;62338;48.832;9.422;2022-07-29T06:00:29;6.20;;;5.10;;
4786;SDS011;62338;48.832;9.422;2022-07-29T06:02:31;8.13;;;5.07;;
4786;SDS011;62338;48.832;9.422;2022-07-29T06:04:34;9.90;;;5.90;;
4786;SDS011;62338;48.832;9.422;2022-07-29T06:06:36;6.17;;;5.50;;
4786;SDS011;62338;48.832;9.422;2022-07-29T06:08:37;9.20;;;6.10;;
4786;SDS011;62338;48.832;9.422;2022-07-29T06:10:40;9.17;;;5.17;;
4786;SDS011;62338;48.832;9.422;2022-07-29T06:12:41;7.07;;;5.57;;
4786;SDS011;62338;48.832;9.422;2022-07-29T06:14:43;8.00;;;5.43;;
4786;SDS011;62338;48.832;9.422;2022-07-29T06:16:45;7.50;;;5.27;;
4786;SDS011;62338;48.832;9.422;2022-07-29T06:18:47;6.73;;;4.90;;
4786;SDS011;62338;48.832;9.422;2022-07-29T06:20:50;7.03;;;5.40;;
4786;SDS011;62338;48.832;9.422;2022-07-29T06:22:52;8.40;;;5.33;;
4786;SDS011;62338;48.832;9.422;2022-07-29T06:24:54;7.23;;;5.57;;
4786;SDS011;62338;48.832;9.422;2022-07-29T06:26:56;10.70;;;4.97;;
4786;SDS011;62338;48.832;9.422;2022-07-29T06:28:58;6.33;;;4.70;;
4786;SDS011;62338;48.832;9.422;2022-07-29T06:30:59;7.63;;;5.30;;
4786;SDS011;62338;48.832;9.422;2022-07-29T06:33:01;8.47;;;5.20;;
4786;SDS011;62338;48.832;9.422;2022-07-29T06:35:04;7.10;;;4.80;;
4786;SDS011;62338;48.832;9.422;2022-07-29T06:37:26;7.47;;;4.97;;
4786;SDS011;62338;48.832;9.422;2022-07-29T06:39:31;7.40;;;4.83;;
4786;SDS011;62338;48.832;9.422;2022-07-29T06:41:37;6.03;;;4.87;;
4786;SDS011;62338;48.832;9.422;2022-07-29T06:43:40;10.90;;;4.50;;
4786;SDS011;62338;48.832;9.422;2022-07-29T06:45:54;6.60;;;4.60;;
4786;SDS011;62338;48.832;9.422;2022-07-29T06:47:56;7.70;;;5.10;;
4786;SDS011;62338;48.832;9.422;2022-07-29T06:49:58;7.30;;;4.50;;
4786;SDS011;62338;48.832;9.422;2022-07-29T06:51:59;6.50;;;4.80;;
4786;SDS011;62338;48.832;9.422;2022-07-29T06:54:01;6.80;;;4.73;;
4786;SDS011;62338;48.832;9.422;2022-07-29T06:56:06;5.70;;;4.33;;
4786;SDS011;62338;48.832;9.422;2022-07-29T06:58:13;7.23;;;4.60;;
4786;SDS011;62338;48.832;9.422;2022-07-29T07:00:17;10.00;;;4.40;;
4786;SDS011;62338;48.832;9.422;2022-07-29T07:02:18;5.00;;;3.83;;
4786;SDS011;62338;48.832;9.422;2022-07-29T07:04:20;7.40;;;4.40;;
4786;SDS011;62338;48.832;9.422;2022-07-29T07:06:22;5.50;;;3.77;;
4786;SDS011;62338;48.832;9.422;2022-07-29T07:08:24;5.53;;;3.23;;
4786;SDS011;62338;48.832;9.422;2022-07-29T07:10:26;5.90;;;3.90;;
4786;SDS011;62338;48.832;9.422;2022-07-29T07:12:28;5.50;;;3.77;;
4786;SDS011;62338;48.832;9.422;2022-07-29T07:14:30;7.63;;;4.30;;
4786;SDS011;62338;48.832;9.422;2022-07-29T07:16:32;7.23;;;3.90;;
4786;SDS011;62338;48.832;9.422;2022-07-29T07:18:34;5.67;;;4.00;;
4786;SDS011;62338;48.832;9.422;2022-07-29T07:20:36;11.70;;;3.30;;
4786;SDS011;62338;48.832;9.422;2022-07-29T07:22:38;6.67;;;3.60;;
4786;SDS011;62338;48.832;9.422;2022-07-29T07:24:40;6.27;;;3.80;;
4786;SDS011;62338;48.832;9.422;2022-07-29T07:26:42;4.50;;;3.13;;
4786;SDS011;62338;48.832;9.422;2022-07-29T07:28:43;4.80;;;3.33;;
4786;SDS011;62338;48.832;9.422;2022-07-29T07:30:45;6.03;;;3.70;;
4786;SDS011;62338;48.832;9.422;2022-07-29T07:32:47;5.70;;;3.93;;
4786;SDS011;62338;48.832;9.422;2022-07-29T07:34:49;5.90;;;3.47;;
4786;SDS011;62338;48.832;9.422;2022-07-29T07:36:50;5.50;;;3.70;;
4786;SDS011;62338;48.832;9.422;2022-07-29T07:38:52;6.20;;;3.40;;
4786;SDS011;62338;48.832;9.422;2022-07-29T07:40:54;9.67;;;3.83;;
4786;SDS011;62338;48.832;9.422;2022-07-29T07:42:56;6.87;;;3.60;;
4786;SDS011;62338;48.832;9.422;2022-07-29T07:44:58;5.38;;;3.65;;
4786;SDS011;62338;48.832;9.422;2022-07-29T07:47:14;5.10;;;3.37;;
4786;SDS011;62338;48.832;9.422;2022-07-29T07:49:22;4.40;;;3.10;;
4786;SDS011;62338;48.832;9.422;2022-07-29T07:51:24;6.00;;;3.73;;
4786;SDS011;62338;48.832;9.422;2022-07-29T07:53:26;5.67;;;3.70;;
4786;SDS011;62338;48.832;9.422;2022-07-29T07:55:30;6.50;;;4.03;;
4786;SDS011;62338;48.832;9.422;2022-07-29T07:57:52;6.13;;;3.83;;
4786;SDS011;62338;48.832;9.422;2022-07-29T07:59:55;6.00;;;4.83;;
4786;SDS011;62338;48.832;9.422;2022-07-29T08:01:57;5.30;;;4.03;;
4786;SDS011;62338;48.832;9.422;2022-07-29T08:03:59;6.90;;;4.17;;
4786;SDS011;62338;48.832;9.422;2022-07-29T08:06:02;7.73;;;4.80;;
4786;SDS011;62338;48.832;9.422;2022-07-29T08:08:04;7.03;;;4.07;;
4786;SDS011;62338;48.832;9.422;2022-07-29T08:10:06;4.95;;;3.75;;
4786;SDS011;62338;48.832;9.422;2022-07-29T08:12:08;6.15;;;3.75;;
4786;SDS011;62338;48.832;9.422;2022-07-29T08:14:10;5.45;;;3.67;;
4786;SDS011;62338;48.832;9.422;2022-07-29T08:16:13;5.97;;;3.85;;
4786;SDS011;62338;48.832;9.422;2022-07-29T08:18:16;5.40;;;4.25;;
4786;SDS011;62338;48.832;9.422;2022-07-29T08:20:18;5.82;;;3.88;;
4786;SDS011;62338;48.832;9.422;2022-07-29T08:22:20;8.15;;;4.35;;
4786;SDS011;62338;48.832;9.422;2022-07-29T08:24:22;5.90;;;3.92;;
4786;SDS011;62338;48.832;9.422;2022-07-29T08:26:42;5.13;;;3.15;;
4786;SDS011;62338;48.832;9.422;2022-07-29T08:28:45;5.82;;;3.47;;
4786;SDS011;62338;48.832;9.422;2022-07-29T08:30:50;5.70;;;3.72;;
4786;SDS011;62338;48.832;9.422;2022-07-29T08:32:52;5.63;;;3.20;;
4786;SDS011;62338;48.832;9.422;2022-07-29T08:34:55;9.70;;;3.97;;
4786;SDS011;62338;48.832;9.422;2022-07-29T08:36:57;8.85;;;3.88;;
4786;SDS011;62338;48.832;9.422;2022-07-29T08:38:59;5.30;;;3.45;;
4786;SDS011;62338;48.832;9.422;2022-07-29T08:41:02;4.82;;;3.78;;
4786;SDS011;62338;48.832;9.422;2022-07-29T08:43:07;6.63;;;3.88;;
4786;SDS011;62338;48.832;9.422;2022-07-29T08:45:09;6.03;;;3.85;;
4786;SDS011;62338;48.832;9.422;2022-07-29T08:47:13;5.10;;;3.60;;
4786;SDS011;62338;48.832;9.422;2022-07-29T08:49:16;7.78;;;3.67;;
4786;SDS011;62338;48.832;9.422;2022-07-29T08:51:19;5.97;;;3.53;;
4786;SDS011;62338;48.832;9.422;2022-07-29T08:53:22;7.85;;;3.38;;
4786;SDS011;62338;48.832;9.422;2022-07-29T08:55:27;5.65;;;3.83;;
4786;SDS011;62338;48.832;9.422;2022-07-29T08:57:29;7.97;;;3.15;;
4786;SDS011;62338;48.832;9.422;2022-07-29T08:59:33;7.05;;;3.40;;
4786;SDS011;62338;48.832;9.422;2022-07-29T09:01:38;5.95;;;3.65;;
4786;SDS011;62338;48.832;9.422;2022-07-29T09:03:45;8.95;;;3.75;;
4786;SDS011;62338;48.832;9.422;2022-07-29T09:05:48;6.88;;;3.40;;
4786;SDS011;62338;48.832;9.422;2022-07-29T09:07:50;5.55;;;3.40;;
4786;SDS011;62338;48.832;9.422;2022-07-29T09:09:52;5.05;;;3.28;;
4786;SDS011;62338;48.832;9.422;2022-07-29T09:11:56;7.22;;;3.42;;
4786;SDS011;62338;48.832;9.422;2022-07-29T09:13:59;9.00;;;3.67;;
4786;SDS011;62338;48.832;9.422;2022-07-29T09:16:01;8.82;;;3.97;;
4786;SDS011;62338;48.832;9.422;2022-07-29T09:18:09;7.75;;;3.53;;
4786;SDS011;62338;48.832;9.422;2022-07-29T09:20:30;8.88;;;3.60;;
4786;SDS011;62338;48.832;9.422;2022-07-29T09:22:51;5.53;;;3.60;;
4786;SDS011;62338;48.832;9.422;2022-07-29T09:24:54;7.35;;;3.92;;
4786;SDS011;62338;48.832;9.422;2022-07-29T09:26:56;7.75;;;3.60;;
4786;SDS011;62338;48.832;9.422;2022-07-29T09:28:58;5.57;;;3.85;;
4786;SDS011;62338;48.832;9.422;2022-07-29T09:31:00;5.25;;;3.50;;
4786;SDS011;62338;48.832;9.422;2022-07-29T09:33:03;5.88;;;3.72;;
4786;SDS011;62338;48.832;9.422;2022-07-29T09:35:14;5.88;;;3.90;;
4786;SDS011;62338;48.832;9.422;2022-07-29T09:37:27;6.10;;;4.45;;
4786;SDS011;62338;48.832;9.422;2022-07-29T09:39:33;7.40;;;3.90;;
4786;SDS011;62338;48.832;9.422;2022-07-29T09:41:50;7.53;;;3.70;;
4786;SDS011;62338;48.832;9.422;2022-07-29T09:43:56;7.43;;;4.40;;
4786;SDS011;62338;48.832;9.422;2022-07-29T09:46:11;7.13;;;3.90;;
4786;SDS011;62338;48.832;9.422;2022-07-29T09:48:14;6.78;;;3.35;;
4786;SDS011;62338;48.832;9.422;2022-07-29T09:50:18;8.57;;;3.80;;
4786;SDS011;62338;48.832;9.422;2022-07-29T09:52:25;6.88;;;3.67;;
4786;SDS011;62338;48.832;9.422;2022-07-29T09:54:28;8.75;;;3.95;;
4786;SDS011;62338;48.832;9.422;2022-07-29T09:56:41;4.82;;;3.65;;
4786;SDS011;62338;48.832;9.422;2022-07-29T09:58:43;9.07;;;4.55;;
4786;SDS011;62338;48.832;9.422;2022-07-29T10:00:45;7.13;;;4.00;;
4786;SDS011;62338;48.832;9.422;2022-07-29T10:02:48;8.13;;;4.38;;
4786;SDS011;62338;48.832;9.422;2022-07-29T10:04:51;5.50;;;4.10;;
4786;SDS011;62338;48.832;9.422;2022-07-29T10:06:59;6.80;;;4.43;;
4786;SDS011;62338;48.832;9.422;2022-07-29T10:09:11;5.88;;;3.72;;
4786;SDS011;62338;48.832;9.422;2022-07-29T10:11:14;6.05;;;3.72;;
4786;SDS011;62338;48.832;9.422;2022-07-29T10:13:19;5.53;;;3.97;;
4786;SDS011;62338;48.832;9.422;2022-07-29T10:15:22;7.15;;;3.75;;
4786;SDS011;62338;48.832;9.422;2022-07-29T10:17:25;5.28;;;3.72;;
4786;SDS011;62338;48.832;9.422;2022-07-29T10:19:28;11.85;;;4.13;;
4786;SDS011;62338;48.832;9.422;2022-07-29T10:21:31;7.43;;;3.92;;
4786;SDS011;62338;48.832;9.422;2022-07-29T10:23:36;10.23;;;4.32;;
4786;SDS011;62338;48.832;9.422;2022-07-29T10:25:47;6.22;;;4.20;;
4786;SDS011;62338;48.832;9.422;2022-07-29T10:27:49;6.78;;;4.38;;
4786;SDS011;62338;48.832;9.422;2022-07-29T10:29:54;5.80;;;4.38;;
4786;SDS011;62338;48.832;9.422;2022-07-29T10:34:16;6.43;;;3.80;;
4786;SDS011;62338;48.832;9.422;2022-07-29T10:36:42;11.68;;;6.65;;
4786;SDS011;62338;48.832;9.422;2022-07-29T10:43:50;5.90;;;3.78;;
4786;SDS011;62338;48.832;9.422;2022-07-29T10:45:55;6.13;;;3.90;;
4786;SDS011;62338;48.832;9.422;2022-07-29T10:48:04;5.22;;;3.70;;
4786;SDS011;62338;48.832;9.422;2022-07-29T10:50:08;8.23;;;4.78;;
4786;SDS011;62338;48.832;9.422;2022-07-29T10:52:17;12.70;;;4.18;;
4786;SDS011;62338;48.832;9.422;2022-07-29T10:56:39;5.90;;;4.88;;
4786;SDS011;62338;48.832;9.422;2022-07-29T10:58:44;7.30;;;4.72;;
4786;SDS011;62338;48.832;9.422;2022-07-29T11:00:58;8.45;;;4.90;;
4786;SDS011;62338;48.832;9.422;2022-07-29T11:03:42;8.02;;;4.85;;
4786;SDS011;62338;48.832;9.422;2022-07-29T11:05:51;7.20;;;4.72;;
4786;SDS011;62338;48.832;9.422;2022-07-29T11:08:28;8.18;;;5.25;;
4786;SDS011;62338;48.832;9.422;2022-07-29T11:10:44;10.27;;;5.28;;
4786;SDS011;62338;48.832;9.422;2022-07-29T11:12:46;9.90;;;5.30;;
4786;SDS011;62338;48.832;9.422;2022-07-29T11:16:59;8.52;;;5.38;;
4786;SDS011;62338;48.832;9.422;2022-07-29T11:21:36;10.77;;;5.20;;
4786;SDS011;62338;48.832;9.422;2022-07-29T11:24:11;11.02;;;5.65;;
4786;SDS011;62338;48.832;9.422;2022-07-29T11:26:30;8.93;;;5.38;;
4786;SDS011;62338;48.832;9.422;2022-07-29T11:28:33;19.85;;;6.18;;
4786;SDS011;62338;48.832;9.422;2022-07-29T11:30:49;7.93;;;5.90;;
4786;SDS011;62338;48.832;9.422;2022-07-29T11:32:53;8.53;;;5.80;;
4786;SDS011;62338;48.832;9.422;2022-07-29T11:35:10;11.10;;;6.27;;
4786;SDS011;62338;48.832;9.422;2022-07-29T11:37:37;9.97;;;5.80;;
4786;SDS011;62338;48.832;9.422;2022-07-29T11:47:22;9.67;;;7.37;;
4786;SDS011;62338;48.832;9.422;2022-07-29T11:49:27;17.60;;;8.57;;
4786;SDS011;62338;48.832;9.422;2022-07-29T11:51:32;12.93;;;7.77;;
4786;SDS011;62338;48.832;9.422;2022-07-29T11:53:33;15.20;;;8.63;;
4786;SDS011;62338;48.832;9.422;2022-07-29T11:55:37;16.07;;;8.70;;
4786;SDS011;62338;48.832;9.422;2022-07-29T11:57:56;12.37;;;8.47;;
4786;SDS011;62338;48.832;9.422;2022-07-29T12:00:05;12.30;;;9.30;;
4786;SDS011;62338;48.832;9.422;2022-07-29T12:02:13;15.43;;;9.57;;
4786;SDS011;62338;48.832;9.422;2022-07-29T12:04:54;12.33;;;9.43;;
4786;SDS011;62338;48.832;9.422;2022-07-29T12:06:57;14.77;;;10.17;;
4786;SDS011;62338;48.832;9.422;2022-07-29T12:09:00;12.77;;;10.27;;
4786;SDS011;62338;48.832;9.422;2022-07-29T12:11:15;17.47;;;9.60;;
4786;SDS011;62338;48.832;9.422;2022-07-29T12:13:21;13.37;;;9.60;;
4786;SDS011;62338;48.832;9.422;2022-07-29T12:15:38;11.77;;;8.67;;
4786;SDS011;62338;48.832;9.422;2022-07-29T12:17:47;14.40;;;9.30;;
4786;SDS011;62338;48.832;9.422;2022-07-29T12:19:49;12.47;;;9.53;;
4786;SDS011;62338;48.832;9.422;2022-07-29T12:21:52;16.07;;;9.70;;
4786;SDS011;62338;48.832;9.422;2022-07-29T12:23:59;17.30;;;10.23;;
4786;SDS011;62338;48.832;9.422;2022-07-29T12:26:09;14.47;;;9.97;;
4786;SDS011;62338;48.832;9.422;2022-07-29T12:28:26;13.97;;;10.23;;
4786;SDS011;62338;48.832;9.422;2022-07-29T12:30:38;19.17;;;10.50;;
4786;SDS011;62338;48.832;9.422;2022-07-29T12:32:43;14.60;;;11.00;;
4786;SDS011;62338;48.832;9.422;2022-07-29T12:34:46;14.77;;;9.90;;
4786;SDS011;62338;48.832;9.422;2022-07-29T12:36:48;17.37;;;10.40;;
4786;SDS011;62338;48.832;9.422;2022-07-29T12:38:51;15.23;;;12.70;;
4786;SDS011;62338;48.832;9.422;2022-07-29T12:40:56;12.70;;;10.33;;
4786;SDS011;62338;48.832;9.422;2022-07-29T12:45:07;17.40;;;11.13;;
4786;SDS011;62338;48.832;9.422;2022-07-29T12:47:09;12.20;;;8.93;;
4786;SDS011;62338;48.832;9.422;2022-07-29T12:49:10;11.77;;;8.03;;
4786;SDS011;62338;48.832;9.422;2022-07-29T12:51:33;9.67;;;6.87;;
4786;SDS011;62338;48.832;9.422;2022-07-29T12:53:39;8.67;;;5.00;;
4786;SDS011;62338;48.832;9.422;2022-07-29T12:55:42;6.60;;;5.40;;
4786;SDS011;62338;48.832;9.422;2022-07-29T12:57:50;7.37;;;5.70;;
4786;SDS011;62338;48.832;9.422;2022-07-29T13:00:09;7.97;;;4.60;;
4786;SDS011;62338;48.832;9.422;2022-07-29T13:02:20;15.77;;;4.33;;
4786;SDS011;62338;48.832;9.422;2022-07-29T13:04:27;7.43;;;3.93;;
4786;SDS011;62338;48.832;9.422;2022-07-29T13:08:39;6.60;;;4.13;;
4786;SDS011;62338;48.832;9.422;2022-07-29T13:11:03;7.60;;;4.00;;
4786;SDS011;62338;48.832;9.422;2022-07-29T13:13:08;8.70;;;4.50;;
4786;SDS011;62338;48.832;9.422;2022-07-29T13:15:14;10.60;;;4.60;;
4786;SDS011;62338;48.832;9.422;2022-07-29T13:17:20;8.10;;;4.57;;
4786;SDS011;62338;48.832;9.422;2022-07-29T13:19:34;6.37;;;4.30;;
4786;SDS011;62338;48.832;9.422;2022-07-29T13:21:39;11.90;;;5.37;;
4786;SDS011;62338;48.832;9.422;2022-07-29T13:23:41;5.43;;;3.90;;
4786;SDS011;62338;48.832;9.422;2022-07-29T13:25:43;5.63;;;3.90;;
4786;SDS011;62338;48.832;9.422;2022-07-29T13:27:44;6.70;;;4.37;;
4786;SDS011;62338;48.832;9.422;2022-07-29T13:29:47;6.60;;;3.83;;
4786;SDS011;62338;48.832;9.422;2022-07-29T13:31:52;5.80;;;3.33;;
4786;SDS011;62338;48.832;9.422;2022-07-29T13:33:54;4.67;;;3.20;;
4786;SDS011;62338;48.832;9.422;2022-07-29T13:35:56;4.67;;;3.47;;
4786;SDS011;62338;48.832;9.422;2022-07-29T13:37:57;6.33;;;3.60;;
4786;SDS011;62338;48.832;9.422;2022-07-29T13:39:59;7.03;;;3.60;;
4786;SDS011;62338;48.832;9.422;2022-07-29T13:42:01;5.90;;;3.50;;
4786;SDS011;62338;48.832;9.422;2022-07-29T13:44:06;7.50;;;3.37;;
4786;SDS011;62338;48.832;9.422;2022-07-29T13:46:08;5.67;;;3.40;;
4786;SDS011;62338;48.832;9.422;2022-07-29T13:48:10;7.47;;;3.70;;
4786;SDS011;62338;48.832;9.422;2022-07-29T13:50:12;4.87;;;3.70;;
4786;SDS011;62338;48.832;9.422;2022-07-29T13:52:14;9.83;;;3.50;;
4786;SDS011;62338;48.832;9.422;2022-07-29T13:54:16;4.43;;;3.57;;
4786;SDS011;62338;48.832;9.422;2022-07-29T13:56:18;6.17;;;3.90;;
4786;SDS011;62338;48.832;9.422;2022-07-29T13:58:20;7.60;;;4.53;;
4786;SDS011;62338;48.832;9.422;2022-07-29T14:00:22;7.77;;;4.40;;
4786;SDS011;62338;48.832;9.422;2022-07-29T14:02:24;8.73;;;4.93;;
4786;SDS011;62338;48.832;9.422;2022-07-29T14:04:27;9.43;;;4.70;;
4786;SDS011;62338;48.832;9.422;2022-07-29T14:06:29;9.00;;;6.20;;
4786;SDS011;62338;48.832;9.422;2022-07-29T14:08:31;6.13;;;5.10;;
4786;SDS011;62338;48.832;9.422;2022-07-29T14:10:32;7.57;;;5.20;;
4786;SDS011;62338;48.832;9.422;2022-07-29T14:12:34;11.17;;;6.30;;
4786;SDS011;62338;48.832;9.422;2022-07-29T14:14:36;8.30;;;5.73;;
4786;SDS011;62338;48.832;9.422;2022-07-29T14:16:38;7.70;;;5.83;;
4786;SDS011;62338;48.832;9.422;2022-07-29T14:18:50;9.93;;;5.30;;
4786;SDS011;62338;48.832;9.422;2022-07-29T14:20:52;6.97;;;5.33;;
4786;SDS011;62338;48.832;9.422;2022-07-29T14:22:54;7.27;;;5.97;;
4786;SDS011;62338;48.832;9.422;2022-07-29T14:24:55;7.20;;;5.90;;
4786;SDS011;62338;48.832;9.422;2022-07-29T14:26:57;8.77;;;6.07;;
4786;SDS011;62338;48.832;9.422;2022-07-29T14:29:00;8.63;;;5.67;;
4786;SDS011;62338;48.832;9.422;2022-07-29T14:31:01;8.73;;;5.43;;
4786;SDS011;62338;48.832;9.422;2022-07-29T14:33:03;10.23;;;6.10;;
4786;SDS011;62338;48.832;9.422;2022-07-29T14:35:05;10.30;;;6.03;;
4786;SDS011;62338;48.832;9.422;2022-07-29T14:37:08;8.67;;;5.17;;
4786;SDS011;62338;48.832;9.422;2022-07-29T14:39:16;14.10;;;6.60;;
4786;SDS011;62338;48.832;9.422;2022-07-29T14:41:18;9.03;;;5.70;;
4786;SDS011;62338;48.832;9.422;2022-07-29T14:43:19;7.37;;;5.87;;
4786;SDS011;62338;48.832;9.422;2022-07-29T14:45:21;12.70;;;6.67;;
4786;SDS011;62338;48.832;9.422;2022-07-29T14:47:23;11.20;;;6.03;;
4786;SDS011;62338;48.832;9.422;2022-07-29T14:49:26;7.70;;;5.93;;
4786;SDS011;62338;48.832;9.422;2022-07-29T14:51:28;10.03;;;5.77;;
4786;SDS011;62338;48.832;9.422;2022-07-29T14:53:32;11.60;;;5.80;;
4786;SDS011;62338;48.832;9.422;2022-07-29T14:55:34;8.53;;;5.47;;
4786;SDS011;62338;48.832;9.422;2022-07-29T14:57:36;8.20;;;5.93;;
4786;SDS011;62338;48.832;9.422;2022-07-29T14:59:38;8.03;;;5.33;;
4786;SDS011;62338;48.832;9.422;2022-07-29T15:01:40;9.43;;;5.67;;
4786;SDS011;62338;48.832;9.422;2022-07-29T15:03:42;7.73;;;5.10;;
4786;SDS011;62338;48.832;9.422;2022-07-29T15:05:43;9.03;;;5.23;;
4786;SDS011;62338;48.832;9.422;2022-07-29T15:07:45;7.37;;;5.30;;
4786;SDS011;62338;48.832;9.422;2022-07-29T15:09:47;11.70;;;5.17;;
4786;SDS011;62338;48.832;9.422;2022-07-29T15:11:50;8.40;;;5.57;;
4786;SDS011;62338;48.832;9.422;2022-07-29T15:13:52;6.60;;;5.60;;
4786;SDS011;62338;48.832;9.422;2022-07-29T15:15:54;8.90;;;5.60;;
4786;SDS011;62338;48.832;9.422;2022-07-29T15:18:00;7.30;;;5.83;;
4786;SDS011;62338;48.832;9.422;2022-07-29T15:20:02;8.30;;;5.47;;
4786;SDS011;62338;48.832;9.422;2022-07-29T15:22:04;6.90;;;5.40;;
4786;SDS011;62338;48.832;9.422;2022-07-29T15:24:07;10.43;;;5.90;;
4786;SDS011;62338;48.832;9.422;2022-07-29T15:26:08;8.37;;;5.90;;
4786;SDS011;62338;48.832;9.422;2022-07-29T15:28:10;8.73;;;5.37;;
4786;SDS011;62338;48.832;9.422;2022-07-29T15:30:12;9.00;;;5.73;;
4786;SDS011;62338;48.832;9.422;2022-07-29T15:32:33;9.03;;;5.63;;
4786;SDS011;62338;48.832;9.422;2022-07-29T15:34:35;10.77;;;6.23;;
4786;SDS011;62338;48.832;9.422;2022-07-29T15:36:38;6.50;;;5.37;;
4786;SDS011;62338;48.832;9.422;2022-07-29T15:38:55;7.83;;;5.23;;
4786;SDS011;62338;48.832;9.422;2022-07-29T15:40:58;7.73;;;5.83;;
4786;SDS011;62338;48.832;9.422;2022-07-29T15:43:02;7.03;;;4.90;;
4786;SDS011;62338;48.832;9.422;2022-07-29T15:45:06;8.60;;;5.50;;
4786;SDS011;62338;48.832;9.422;2022-07-29T15:47:08;6.63;;;5.10;;
4786;SDS011;62338;48.832;9.422;2022-07-29T15:49:10;11.67;;;6.17;;
4786;SDS011;62338;48.832;9.422;2022-07-29T15:51:12;14.90;;;5.13;;
4786;SDS011;62338;48.832;9.422;2022-07-29T15:53:14;10.20;;;4.83;;
4786;SDS011;62338;48.832;9.422;2022-07-29T15:55:16;14.90;;;5.80;;
4786;SDS011;62338;48.832;9.422;2022-07-29T15:57:17;7.63;;;4.90;;
4786;SDS011;62338;48.832;9.422;2022-07-29T15:59:19;8.53;;;4.70;;
4786;SDS011;62338;48.832;9.422;2022-07-29T16:01:22;12.57;;;4.97;;
4786;SDS011;62338;48.832;9.422;2022-07-29T16:03:25;6.80;;;5.23;;
4786;SDS011;62338;48.832;9.422;2022-07-29T16:05:27;8.47;;;5.07;;
4786;SDS011;62338;48.832;9.422;2022-07-29T16:07:29;11.07;;;5.17;;
4786;SDS011;62338;48.832;9.422;2022-07-29T16:09:32;8.20;;;5.30;;
4786;SDS011;62338;48.832;9.422;2022-07-29T16:11:34;9.30;;;5.23;;
4786;SDS011;62338;48.832;9.422;2022-07-29T16:13:36;6.83;;;5.50;;
4786;SDS011;62338;48.832;9.422;2022-07-29T16:15:38;12.43;;;4.93;;
4786;SDS011;62338;48.832;9.422;2022-07-29T16:17:40;7.97;;;5.60;;
4786;SDS011;62338;48.832;9.422;2022-07-29T16:19:42;7.40;;;5.13;;
4786;SDS011;62338;48.832;9.422;2022-07-29T16:21:44;7.97;;;5.53;;
4786;SDS011;62338;48.832;9.422;2022-07-29T16:23:46;10.50;;;5.50;;
4786;SDS011;62338;48.832;9.422;2022-07-29T16:25:48;10.47;;;5.90;;
4786;SDS011;62338;48.832;9.422;2022-07-29T16:28:00;9.70;;;6.10;;
4786;SDS011;62338;48.832;9.422;2022-07-29T16:30:02;7.77;;;5.30;;
4786;SDS011;62338;48.832;9.422;2022-07-29T16:32:05;9.67;;;5.77;;
4786;SDS011;62338;48.832;9.422;2022-07-29T16:34:07;7.80;;;5.70;;
4786;SDS011;62338;48.832;9.422;2022-07-29T16:36:08;9.40;;;6.30;;
4786;SDS011;62338;48.832;9.422;2022-07-29T16:38:13;9.03;;;5.30;;
4786;SDS011;62338;48.832;9.422;2022-07-29T16:40:15;10.27;;;5.77;;